<?xml version='1.0' encoding='UTF-8'?><gpx version="1.1" creator="JPX - https://github.com/jenetics/jpx" xmlns="http://www.topografix.com/GPX/1/1"><trk><trkseg><trkpt lat="42.3248333" lon="12.1320403"><ele>768.0</ele><time>2026-04-27T10:20:45.948Z</time></trkpt><trkpt lat="42.3248469" lon="12.1319508"><ele>767.9999999999999</ele><time>2026-04-27T10:20:55.95Z</time></trkpt><trkpt lat="42.3248974" lon="12.1318905"><ele>768.0</ele><time>2026-04-27T10:21:03.963Z</time></trkpt><trkpt lat="42.3249362" lon="12.1318203"><ele>768.0</ele><time>2026-04-27T10:21:10.965Z</time></trkpt><trkpt lat="42.3249362" lon="12.1318203"><ele>768.0</ele><time>2026-04-27T10:21:10.965Z</time></trkpt><trkpt lat="42.3249362" lon="12.1318203"><ele>768.0</ele><time>2026-04-27T10:21:10.965Z</time></trkpt><trkpt lat="42.3249362" lon="12.1318203"><ele>767.9999999999999</ele><time>2026-04-27T10:21:10.965Z</time></trkpt><trkpt lat="42.3249362" lon="12.1318203"><ele>768.0</ele><time>2026-04-27T10:21:10.965Z</time></trkpt><trkpt lat="42.3249362" lon="12.1318203"><ele>768.0</ele><time>2026-04-27T10:21:10.965Z</time></trkpt><trkpt lat="42.3253139" lon="12.1309646"><ele>767.9999999999999</ele><time>2026-04-27T10:28:33.949Z</time></trkpt><trkpt lat="42.3253749" lon="12.1310162"><ele>768.0</ele><time>2026-04-27T10:28:43.943Z</time></trkpt><trkpt lat="42.3254288" lon="12.1310757"><ele>768.0</ele><time>2026-04-27T10:28:51.941Z</time></trkpt><trkpt lat="42.3254713" lon="12.1311413"><ele>768.0</ele><time>2026-04-27T10:29:10.946Z</time></trkpt><trkpt lat="42.325481" lon="12.1312275"><ele>768.0</ele><time>2026-04-27T10:29:22.947Z</time></trkpt><trkpt lat="42.325568" lon="12.1312644"><ele>767.9999999999999</ele><time>2026-04-27T10:29:44.957Z</time></trkpt><trkpt lat="42.3256229" lon="12.1313132"><ele>768.0</ele><time>2026-04-27T10:29:56.966Z</time></trkpt><trkpt lat="42.3256496" lon="12.1313907"><ele>767.9999999999999</ele><time>2026-04-27T10:30:06.955Z</time></trkpt><trkpt lat="42.3256689" lon="12.1314724"><ele>768.0</ele><time>2026-04-27T10:30:15.95Z</time></trkpt><trkpt lat="42.3256855" lon="12.1315562"><ele>768.0</ele><time>2026-04-27T10:30:31.95Z</time></trkpt><trkpt lat="42.3256655" lon="12.1316949"><ele>768.0</ele><time>2026-04-27T10:31:11.942Z</time></trkpt><trkpt lat="42.3256658" lon="12.1317829"><ele>768.0</ele><time>2026-04-27T10:31:16.988Z</time></trkpt><trkpt lat="42.325697" lon="12.131857"><ele>767.9999999999999</ele><time>2026-04-27T10:31:25.946Z</time></trkpt><trkpt lat="42.3257177" lon="12.1319423"><ele>768.0</ele><time>2026-04-27T10:31:35.947Z</time></trkpt><trkpt lat="42.3257384" lon="12.1320277"><ele>769.8571428571428</ele><time>2026-04-27T10:31:58.962Z</time></trkpt><trkpt lat="42.3257483" lon="12.1321147"><ele>771.7142857142857</ele><time>2026-04-27T10:32:19.004Z</time></trkpt><trkpt lat="42.3257766" lon="12.132194"><ele>773.5714285714286</ele><time>2026-04-27T10:32:27.863Z</time></trkpt><trkpt lat="42.325809" lon="12.1322701"><ele>775.4285714285713</ele><time>2026-04-27T10:32:34.991Z</time></trkpt><trkpt lat="42.3258493" lon="12.1323555"><ele>777.2857142857143</ele><time>2026-04-27T10:32:43.943Z</time></trkpt><trkpt lat="42.3258821" lon="12.1324284"><ele>779.1428571428571</ele><time>2026-04-27T10:32:52.947Z</time></trkpt><trkpt lat="42.3259249" lon="12.1324924"><ele>781.0</ele><time>2026-04-27T10:33:11.97Z</time></trkpt><trkpt lat="42.3258776" lon="12.1325508"><ele>783.6666666666666</ele><time>2026-04-27T10:33:29.945Z</time></trkpt><trkpt lat="42.3258904" lon="12.1326376"><ele>786.3333333333333</ele><time>2026-04-27T10:33:47.948Z</time></trkpt><trkpt lat="42.3259311" lon="12.1327131"><ele>789.0</ele><time>2026-04-27T10:33:58.942Z</time></trkpt><trkpt lat="42.3259617" lon="12.1327883"><ele>791.6666666666667</ele><time>2026-04-27T10:34:10.949Z</time></trkpt><trkpt lat="42.3259684" lon="12.1328839"><ele>794.3333333333334</ele><time>2026-04-27T10:35:08.963Z</time></trkpt><trkpt lat="42.3259636" lon="12.1330707"><ele>797.0</ele><time>2026-04-27T10:35:31.924Z</time></trkpt><trkpt lat="42.3260022" lon="12.1331537"><ele>797.0</ele><time>2026-04-27T10:35:36.943Z</time></trkpt><trkpt lat="42.3260612" lon="12.1331942"><ele>797.0</ele><time>2026-04-27T10:35:46.947Z</time></trkpt><trkpt lat="42.326068" lon="12.1333606"><ele>797.0</ele><time>2026-04-27T10:37:48.942Z</time></trkpt><trkpt lat="42.3260528" lon="12.1334441"><ele>797.0</ele><time>2026-04-27T10:37:55.943Z</time></trkpt><trkpt lat="42.3260226" lon="12.1335191"><ele>797.0</ele><time>2026-04-27T10:38:13.93Z</time></trkpt><trkpt lat="42.3260573" lon="12.1335966"><ele>797.0</ele><time>2026-04-27T10:38:26.954Z</time></trkpt><trkpt lat="42.3260947" lon="12.1336664"><ele>797.0</ele><time>2026-04-27T10:38:36.942Z</time></trkpt><trkpt lat="42.3261056" lon="12.1337531"><ele>798.8571428571428</ele><time>2026-04-27T10:38:57.989Z</time></trkpt><trkpt lat="42.3261496" lon="12.1338265"><ele>800.7142857142858</ele><time>2026-04-27T10:39:04.885Z</time></trkpt><trkpt lat="42.3261684" lon="12.1339082"><ele>802.5714285714286</ele><time>2026-04-27T10:39:13.948Z</time></trkpt><trkpt lat="42.3261628" lon="12.1339994"><ele>804.4285714285713</ele><time>2026-04-27T10:39:26.944Z</time></trkpt><trkpt lat="42.326178" lon="12.1340845"><ele>806.2857142857142</ele><time>2026-04-27T10:39:54.945Z</time></trkpt><trkpt lat="42.3261883" lon="12.1341698"><ele>808.1428571428571</ele><time>2026-04-27T10:40:12.944Z</time></trkpt><trkpt lat="42.3261511" lon="12.1342453"><ele>810.0</ele><time>2026-04-27T10:40:29.948Z</time></trkpt><trkpt lat="42.3261462" lon="12.1343382"><ele>811.3333333333334</ele><time>2026-04-27T10:40:41.945Z</time></trkpt><trkpt lat="42.3261556" lon="12.1344225"><ele>812.6666666666667</ele><time>2026-04-27T10:40:49.947Z</time></trkpt><trkpt lat="42.326201" lon="12.1345531"><ele>814.0</ele><time>2026-04-27T10:41:15.985Z</time></trkpt><trkpt lat="42.3262367" lon="12.134631"><ele>815.3333333333334</ele><time>2026-04-27T10:41:30.943Z</time></trkpt><trkpt lat="42.3262422" lon="12.1347173"><ele>816.6666666666667</ele><time>2026-04-27T10:41:41.96Z</time></trkpt><trkpt lat="42.3262499" lon="12.1348743"><ele>818.0</ele><time>2026-04-27T10:42:04.947Z</time></trkpt><trkpt lat="42.3262855" lon="12.134948"><ele>819.1666666666667</ele><time>2026-04-27T10:42:12.995Z</time></trkpt><trkpt lat="42.3263209" lon="12.1350291"><ele>820.3333333333334</ele><time>2026-04-27T10:42:26.943Z</time></trkpt><trkpt lat="42.3263626" lon="12.1351521"><ele>821.5</ele><time>2026-04-27T10:43:09.953Z</time></trkpt><trkpt lat="42.3264246" lon="12.135189"><ele>822.6666666666667</ele><time>2026-04-27T10:43:54.869Z</time></trkpt><trkpt lat="42.3264062" lon="12.1352821"><ele>823.8333333333334</ele><time>2026-04-27T10:44:06.947Z</time></trkpt><trkpt lat="42.3264147" lon="12.135451"><ele>825.0</ele><time>2026-04-27T10:44:30.954Z</time></trkpt><trkpt lat="42.3264752" lon="12.1355302"><ele>826.3333333333334</ele><time>2026-04-27T10:45:00.943Z</time></trkpt><trkpt lat="42.3265721" lon="12.1356166"><ele>827.6666666666667</ele><time>2026-04-27T10:45:58.943Z</time></trkpt><trkpt lat="42.326617" lon="12.1356773"><ele>829.0</ele><time>2026-04-27T10:46:06.955Z</time></trkpt><trkpt lat="42.3266784" lon="12.1356981"><ele>830.3333333333334</ele><time>2026-04-27T10:46:14.984Z</time></trkpt><trkpt lat="42.326737" lon="12.1357306"><ele>831.6666666666667</ele><time>2026-04-27T10:46:24.972Z</time></trkpt><trkpt lat="42.3267811" lon="12.1358391"><ele>833.0</ele><time>2026-04-27T10:46:40.945Z</time></trkpt><trkpt lat="42.3268249" lon="12.1359111"><ele>834.8571428571429</ele><time>2026-04-27T10:46:49.949Z</time></trkpt><trkpt lat="42.3268732" lon="12.1359778"><ele>836.7142857142858</ele><time>2026-04-27T10:47:00.949Z</time></trkpt><trkpt lat="42.3269329" lon="12.1360135"><ele>838.5714285714286</ele><time>2026-04-27T10:47:12.948Z</time></trkpt><trkpt lat="42.3269644" lon="12.1360927"><ele>840.4285714285714</ele><time>2026-04-27T10:47:24.945Z</time></trkpt><trkpt lat="42.3269845" lon="12.1361769"><ele>842.2857142857143</ele><time>2026-04-27T10:47:36.947Z</time></trkpt><trkpt lat="42.3270045" lon="12.1362597"><ele>844.1428571428571</ele><time>2026-04-27T10:47:56.888Z</time></trkpt><trkpt lat="42.3269505" lon="12.1363051"><ele>846.0</ele><time>2026-04-27T10:48:05.944Z</time></trkpt><trkpt lat="42.3269557" lon="12.1363941"><ele>846.0</ele><time>2026-04-27T10:48:40.948Z</time></trkpt><trkpt lat="42.3269737" lon="12.1364766"><ele>846.0</ele><time>2026-04-27T10:48:48.971Z</time></trkpt><trkpt lat="42.3269797" lon="12.1365658"><ele>846.0</ele><time>2026-04-27T10:49:04.945Z</time></trkpt><trkpt lat="42.3269925" lon="12.1366501"><ele>846.0</ele><time>2026-04-27T10:49:14.947Z</time></trkpt><trkpt lat="42.3270156" lon="12.1367357"><ele>846.0</ele><time>2026-04-27T10:49:41.946Z</time></trkpt><trkpt lat="42.3269941" lon="12.1368536"><ele>846.0</ele><time>2026-04-27T10:50:06.944Z</time></trkpt><trkpt lat="42.3270104" lon="12.1369561"><ele>846.0</ele><time>2026-04-27T10:51:58.941Z</time></trkpt><trkpt lat="42.3270588" lon="12.1370126"><ele>847.8571428571428</ele><time>2026-04-27T10:52:09.948Z</time></trkpt><trkpt lat="42.3270825" lon="12.1370982"><ele>849.7142857142858</ele><time>2026-04-27T10:52:34.944Z</time></trkpt><trkpt lat="42.3271153" lon="12.1371719"><ele>851.5714285714286</ele><time>2026-04-27T10:52:58.948Z</time></trkpt><trkpt lat="42.3270697" lon="12.1372876"><ele>853.4285714285713</ele><time>2026-04-27T10:54:19.943Z</time></trkpt><trkpt lat="42.3270247" lon="12.137371"><ele>855.2857142857142</ele><time>2026-04-27T10:55:15.908Z</time></trkpt><trkpt lat="42.32697" lon="12.1374247"><ele>857.1428571428571</ele><time>2026-04-27T10:55:58.967Z</time></trkpt><trkpt lat="42.3269003" lon="12.1374497"><ele>859.0</ele><time>2026-04-27T10:56:05.983Z</time></trkpt><trkpt lat="42.3268372" lon="12.1374332"><ele>858.9999999999999</ele><time>2026-04-27T10:56:15.971Z</time></trkpt><trkpt lat="42.326774" lon="12.1373917"><ele>859.0</ele><time>2026-04-27T10:56:25.959Z</time></trkpt><trkpt lat="42.3267086" lon="12.1373921"><ele>859.0</ele><time>2026-04-27T10:56:31.949Z</time></trkpt><trkpt lat="42.3266439" lon="12.1373912"><ele>859.0</ele><time>2026-04-27T10:56:38.005Z</time></trkpt><trkpt lat="42.3265795" lon="12.1373829"><ele>859.0</ele><time>2026-04-27T10:56:48.946Z</time></trkpt><trkpt lat="42.3265086" lon="12.1373663"><ele>858.9999999999999</ele><time>2026-04-27T10:56:55.949Z</time></trkpt><trkpt lat="42.3264429" lon="12.1373359"><ele>859.0</ele><time>2026-04-27T10:57:01.988Z</time></trkpt><trkpt lat="42.3263851" lon="12.1372942"><ele>857.1666666666666</ele><time>2026-04-27T10:57:06.968Z</time></trkpt><trkpt lat="42.3263269" lon="12.1372529"><ele>855.3333333333333</ele><time>2026-04-27T10:57:15.949Z</time></trkpt><trkpt lat="42.3262527" lon="12.1372208"><ele>853.5</ele><time>2026-04-27T10:57:30.944Z</time></trkpt><trkpt lat="42.32619" lon="12.1370633"><ele>851.6666666666667</ele><time>2026-04-27T10:59:50.947Z</time></trkpt><trkpt lat="42.3261867" lon="12.13715"><ele>849.8333333333334</ele><time>2026-04-27T11:01:30.96Z</time></trkpt><trkpt lat="42.3261233" lon="12.1371733"><ele>848.0</ele><time>2026-04-27T11:05:49.943Z</time></trkpt><trkpt lat="42.3260583" lon="12.137205"><ele>848.0</ele><time>2026-04-27T11:06:00.947Z</time></trkpt><trkpt lat="42.3259966" lon="12.1372482"><ele>848.0</ele><time>2026-04-27T11:06:12.943Z</time></trkpt><trkpt lat="42.3259328" lon="12.1372728"><ele>848.0</ele><time>2026-04-27T11:06:19.943Z</time></trkpt><trkpt lat="42.3258856" lon="12.1373404"><ele>848.0</ele><time>2026-04-27T11:06:51.898Z</time></trkpt><trkpt lat="42.3258349" lon="12.137289"><ele>848.0</ele><time>2026-04-27T11:06:58.968Z</time></trkpt><trkpt lat="42.3257269" lon="12.1372506"><ele>848.0</ele><time>2026-04-27T11:10:33.951Z</time></trkpt><trkpt lat="42.3256805" lon="12.1373086"><ele>848.0</ele><time>2026-04-27T11:10:40.954Z</time></trkpt><trkpt lat="42.3256133" lon="12.1373313"><ele>846.7142857142858</ele><time>2026-04-27T11:10:51.943Z</time></trkpt><trkpt lat="42.3255547" lon="12.1373684"><ele>845.4285714285713</ele><time>2026-04-27T11:11:03.965Z</time></trkpt><trkpt lat="42.3254968" lon="12.13742"><ele>844.1428571428571</ele><time>2026-04-27T11:11:16.97Z</time></trkpt><trkpt lat="42.3254545" lon="12.1374884"><ele>842.8571428571429</ele><time>2026-04-27T11:11:26.96Z</time></trkpt><trkpt lat="42.325392" lon="12.1375289"><ele>841.5714285714287</ele><time>2026-04-27T11:11:39.948Z</time></trkpt><trkpt lat="42.3253092" lon="12.1375752"><ele>840.2857142857142</ele><time>2026-04-27T11:12:19.948Z</time></trkpt><trkpt lat="42.325251" lon="12.1376152"><ele>839.0</ele><time>2026-04-27T11:12:24.992Z</time></trkpt><trkpt lat="42.3251898" lon="12.1376389"><ele>841.1666666666667</ele><time>2026-04-27T11:12:31.943Z</time></trkpt><trkpt lat="42.3251261" lon="12.1376391"><ele>843.3333333333334</ele><time>2026-04-27T11:12:40.946Z</time></trkpt><trkpt lat="42.3250034" lon="12.1376364"><ele>845.5</ele><time>2026-04-27T11:13:04.952Z</time></trkpt><trkpt lat="42.3249443" lon="12.137693"><ele>847.6666666666667</ele><time>2026-04-27T11:13:12.942Z</time></trkpt><trkpt lat="42.3248535" lon="12.1377284"><ele>849.8333333333334</ele><time>2026-04-27T11:14:14.942Z</time></trkpt><trkpt lat="42.3247882" lon="12.1377598"><ele>852.0</ele><time>2026-04-27T11:14:22.943Z</time></trkpt><trkpt lat="42.3245444" lon="12.1378694"><ele>851.9999999999999</ele><time>2026-04-27T11:16:32.945Z</time></trkpt><trkpt lat="42.324475" lon="12.1378578"><ele>852.0</ele><time>2026-04-27T11:16:39.89Z</time></trkpt><trkpt lat="42.3244046" lon="12.1378521"><ele>852.0</ele><time>2026-04-27T11:16:44.95Z</time></trkpt><trkpt lat="42.3243458" lon="12.1379009"><ele>852.0</ele><time>2026-04-27T11:16:52.95Z</time></trkpt><trkpt lat="42.3242818" lon="12.1379273"><ele>852.0</ele><time>2026-04-27T11:16:59.946Z</time></trkpt><trkpt lat="42.3242166" lon="12.1379544"><ele>851.9999999999999</ele><time>2026-04-27T11:17:06.948Z</time></trkpt><trkpt lat="42.3241499" lon="12.1379887"><ele>852.0</ele><time>2026-04-27T11:17:16.944Z</time></trkpt><trkpt lat="42.3241002" lon="12.138045"><ele>852.0</ele><time>2026-04-27T11:17:24.943Z</time></trkpt><trkpt lat="42.3240557" lon="12.1381096"><ele>852.0</ele><time>2026-04-27T11:17:32.976Z</time></trkpt><trkpt lat="42.3239929" lon="12.1381429"><ele>852.0</ele><time>2026-04-27T11:17:44.87Z</time></trkpt><trkpt lat="42.3239464" lon="12.1382125"><ele>852.0</ele><time>2026-04-27T11:17:54.89Z</time></trkpt><trkpt lat="42.3238921" lon="12.1381694"><ele>852.0</ele><time>2026-04-27T11:18:15.942Z</time></trkpt><trkpt lat="42.3238594" lon="12.1379707"><ele>852.0</ele><time>2026-04-27T11:18:48.949Z</time></trkpt><trkpt lat="42.3238047" lon="12.1378049"><ele>851.9999999999999</ele><time>2026-04-27T11:19:26.943Z</time></trkpt><trkpt lat="42.3237776" lon="12.1377208"><ele>852.0</ele><time>2026-04-27T11:19:33.946Z</time></trkpt><trkpt lat="42.3237427" lon="12.137641"><ele>852.0</ele><time>2026-04-27T11:19:42.814Z</time></trkpt><trkpt lat="42.3237187" lon="12.1375603"><ele>852.0</ele><time>2026-04-27T11:19:50.944Z</time></trkpt><trkpt lat="42.3236988" lon="12.1374764"><ele>852.0</ele><time>2026-04-27T11:19:59.978Z</time></trkpt><trkpt lat="42.3237174" lon="12.1373875"><ele>851.9999999999999</ele><time>2026-04-27T11:20:08.888Z</time></trkpt><trkpt lat="42.3237392" lon="12.1373075"><ele>852.0</ele><time>2026-04-27T11:20:16.984Z</time></trkpt><trkpt lat="42.3237866" lon="12.1372391"><ele>849.9999999999999</ele><time>2026-04-27T11:20:26.974Z</time></trkpt><trkpt lat="42.3237544" lon="12.1371598"><ele>848.0</ele><time>2026-04-27T11:20:39.945Z</time></trkpt><trkpt lat="42.3237617" lon="12.1370586"><ele>846.0</ele><time>2026-04-27T11:20:57.946Z</time></trkpt><trkpt lat="42.3237364" lon="12.1369744"><ele>844.0</ele><time>2026-04-27T11:21:07.946Z</time></trkpt><trkpt lat="42.3237434" lon="12.1368889"><ele>842.0</ele><time>2026-04-27T11:21:20.935Z</time></trkpt><trkpt lat="42.3237321" lon="12.1368008"><ele>839.9999999999999</ele><time>2026-04-27T11:21:30.534Z</time></trkpt><trkpt lat="42.3236919" lon="12.1367316"><ele>838.0</ele><time>2026-04-27T11:21:33.945Z</time></trkpt><trkpt lat="42.3236683" lon="12.1366515"><ele>837.9999999999999</ele><time>2026-04-27T11:21:39.753Z</time></trkpt><trkpt lat="42.3237074" lon="12.13658"><ele>838.0</ele><time>2026-04-27T11:21:52.933Z</time></trkpt><trkpt lat="42.323762" lon="12.1365255"><ele>838.0</ele><time>2026-04-27T11:22:04.945Z</time></trkpt><trkpt lat="42.3238189" lon="12.1364855"><ele>838.0</ele><time>2026-04-27T11:22:14.945Z</time></trkpt><trkpt lat="42.3238862" lon="12.1364696"><ele>838.0</ele><time>2026-04-27T11:22:25.951Z</time></trkpt><trkpt lat="42.3239291" lon="12.1363923"><ele>837.9999999999999</ele><time>2026-04-27T11:22:33.853Z</time></trkpt><trkpt lat="42.3239614" lon="12.1363161"><ele>838.0</ele><time>2026-04-27T11:22:43.946Z</time></trkpt><trkpt lat="42.3240022" lon="12.1362468"><ele>837.7142857142857</ele><time>2026-04-27T11:22:51.948Z</time></trkpt><trkpt lat="42.3240586" lon="12.1362046"><ele>837.4285714285714</ele><time>2026-04-27T11:22:59.963Z</time></trkpt><trkpt lat="42.3241287" lon="12.1361832"><ele>837.1428571428571</ele><time>2026-04-27T11:23:07.853Z</time></trkpt><trkpt lat="42.3241912" lon="12.1361682"><ele>836.8571428571429</ele><time>2026-04-27T11:23:21.963Z</time></trkpt><trkpt lat="42.3242087" lon="12.1360395"><ele>836.5714285714286</ele><time>2026-04-27T11:23:44.985Z</time></trkpt><trkpt lat="42.3242189" lon="12.1359479"><ele>836.2857142857142</ele><time>2026-04-27T11:23:50.979Z</time></trkpt><trkpt lat="42.324252" lon="12.1358721"><ele>836.0</ele><time>2026-04-27T11:23:59.013Z</time></trkpt><trkpt lat="42.3242898" lon="12.1357973"><ele>834.4285714285714</ele><time>2026-04-27T11:24:07.983Z</time></trkpt><trkpt lat="42.3243112" lon="12.1357098"><ele>832.8571428571429</ele><time>2026-04-27T11:24:15.95Z</time></trkpt><trkpt lat="42.3243226" lon="12.1355621"><ele>831.2857142857142</ele><time>2026-04-27T11:24:40.942Z</time></trkpt><trkpt lat="42.3243122" lon="12.1354723"><ele>829.7142857142858</ele><time>2026-04-27T11:24:49.948Z</time></trkpt><trkpt lat="42.324269" lon="12.1354028"><ele>828.1428571428572</ele><time>2026-04-27T11:25:12.955Z</time></trkpt><trkpt lat="42.324212" lon="12.1353613"><ele>826.5714285714286</ele><time>2026-04-27T11:25:22.942Z</time></trkpt><trkpt lat="42.3241689" lon="12.1352847"><ele>825.0</ele><time>2026-04-27T11:25:30.883Z</time></trkpt><trkpt lat="42.3241647" lon="12.1351854"><ele>825.0</ele><time>2026-04-27T11:25:36.957Z</time></trkpt><trkpt lat="42.3241379" lon="12.1350619"><ele>825.0</ele><time>2026-04-27T11:26:00.976Z</time></trkpt><trkpt lat="42.3240883" lon="12.1349964"><ele>825.0</ele><time>2026-04-27T11:26:09.948Z</time></trkpt><trkpt lat="42.3240369" lon="12.1349338"><ele>825.0</ele><time>2026-04-27T11:26:19.963Z</time></trkpt><trkpt lat="42.3239979" lon="12.1348621"><ele>825.0</ele><time>2026-04-27T11:26:33.912Z</time></trkpt><trkpt lat="42.3239564" lon="12.1347792"><ele>825.0</ele><time>2026-04-27T11:26:52.948Z</time></trkpt><trkpt lat="42.323901" lon="12.1347316"><ele>825.0</ele><time>2026-04-27T11:26:58.948Z</time></trkpt><trkpt lat="42.3238813" lon="12.1346504"><ele>822.7142857142857</ele><time>2026-04-27T11:27:06.967Z</time></trkpt><trkpt lat="42.3238894" lon="12.1345622"><ele>820.4285714285714</ele><time>2026-04-27T11:27:27.941Z</time></trkpt><trkpt lat="42.3239264" lon="12.1344879"><ele>818.1428571428571</ele><time>2026-04-27T11:27:37.942Z</time></trkpt><trkpt lat="42.323935" lon="12.1343918"><ele>815.8571428571429</ele><time>2026-04-27T11:27:45.908Z</time></trkpt><trkpt lat="42.323922" lon="12.134301"><ele>813.5714285714287</ele><time>2026-04-27T11:27:53.942Z</time></trkpt><trkpt lat="42.3239055" lon="12.1342176"><ele>811.2857142857143</ele><time>2026-04-27T11:28:02.97Z</time></trkpt><trkpt lat="42.3239141" lon="12.134118"><ele>809.0</ele><time>2026-04-27T11:28:10.947Z</time></trkpt><trkpt lat="42.3239268" lon="12.1340319"><ele>806.8571428571429</ele><time>2026-04-27T11:28:19.973Z</time></trkpt><trkpt lat="42.3239535" lon="12.1339384"><ele>804.7142857142858</ele><time>2026-04-27T11:28:30.945Z</time></trkpt><trkpt lat="42.3238849" lon="12.1338627"><ele>802.5714285714286</ele><time>2026-04-27T11:28:49.943Z</time></trkpt><trkpt lat="42.3238205" lon="12.1338581"><ele>800.4285714285714</ele><time>2026-04-27T11:29:34.949Z</time></trkpt><trkpt lat="42.3237601" lon="12.1338933"><ele>798.2857142857142</ele><time>2026-04-27T11:29:48.948Z</time></trkpt><trkpt lat="42.3237623" lon="12.1338037"><ele>796.1428571428571</ele><time>2026-04-27T11:30:57.947Z</time></trkpt><trkpt lat="42.323808" lon="12.1337405"><ele>794.0</ele><time>2026-04-27T11:31:19.944Z</time></trkpt><trkpt lat="42.3238511" lon="12.1336652"><ele>794.0000000000001</ele><time>2026-04-27T11:31:30.947Z</time></trkpt><trkpt lat="42.3238706" lon="12.1335791"><ele>794.0</ele><time>2026-04-27T11:31:40.947Z</time></trkpt><trkpt lat="42.3238555" lon="12.1334332"><ele>794.0</ele><time>2026-04-27T11:31:56.944Z</time></trkpt><trkpt lat="42.3238405" lon="12.1333464"><ele>794.0</ele><time>2026-04-27T11:32:05.946Z</time></trkpt><trkpt lat="42.3237866" lon="12.1332726"><ele>794.0000000000001</ele><time>2026-04-27T11:32:10.924Z</time></trkpt><trkpt lat="42.3237324" lon="12.1332213"><ele>794.0</ele><time>2026-04-27T11:32:15.996Z</time></trkpt><trkpt lat="42.323686" lon="12.133156"><ele>791.8571428571429</ele><time>2026-04-27T11:32:24.944Z</time></trkpt><trkpt lat="42.3236769" lon="12.1330627"><ele>789.7142857142857</ele><time>2026-04-27T11:32:41.928Z</time></trkpt><trkpt lat="42.3236414" lon="12.1329885"><ele>787.5714285714287</ele><time>2026-04-27T11:32:47.98Z</time></trkpt><trkpt lat="42.323592" lon="12.132866"><ele>785.4285714285714</ele><time>2026-04-27T11:33:09.977Z</time></trkpt><trkpt lat="42.3235835" lon="12.1327781"><ele>783.2857142857143</ele><time>2026-04-27T11:33:18.944Z</time></trkpt><trkpt lat="42.3236127" lon="12.1326833"><ele>781.1428571428572</ele><time>2026-04-27T11:33:27.947Z</time></trkpt><trkpt lat="42.3236278" lon="12.1325964"><ele>779.0</ele><time>2026-04-27T11:33:40.942Z</time></trkpt><trkpt lat="42.3236742" lon="12.1325167"><ele>779.0000000000001</ele><time>2026-04-27T11:33:49.949Z</time></trkpt><trkpt lat="42.3237198" lon="12.1324575"><ele>779.0</ele><time>2026-04-27T11:33:53.97Z</time></trkpt><trkpt lat="42.3237522" lon="12.1323842"><ele>779.0</ele><time>2026-04-27T11:34:05.979Z</time></trkpt><trkpt lat="42.3237484" lon="12.1322964"><ele>779.0</ele><time>2026-04-27T11:34:15.967Z</time></trkpt><trkpt lat="42.3237689" lon="12.1322149"><ele>779.0</ele><time>2026-04-27T11:34:20.922Z</time></trkpt><trkpt lat="42.3237755" lon="12.1321246"><ele>779.0000000000001</ele><time>2026-04-27T11:34:29.015Z</time></trkpt><trkpt lat="42.3237678" lon="12.1319874"><ele>779.0</ele><time>2026-04-27T11:34:50.948Z</time></trkpt><trkpt lat="42.323745" lon="12.1319046"><ele>776.6666666666667</ele><time>2026-04-27T11:34:57.89Z</time></trkpt><trkpt lat="42.3237406" lon="12.1318051"><ele>774.3333333333334</ele><time>2026-04-27T11:35:10.026Z</time></trkpt><trkpt lat="42.3237178" lon="12.1317174"><ele>772.0</ele><time>2026-04-27T11:35:16.994Z</time></trkpt><trkpt lat="42.3236336" lon="12.1316894"><ele>769.6666666666667</ele><time>2026-04-27T11:35:17.943Z</time></trkpt><trkpt lat="42.3235922" lon="12.1316249"><ele>767.3333333333334</ele><time>2026-04-27T11:35:24.971Z</time></trkpt><trkpt lat="42.3235725" lon="12.1315137"><ele>765.0</ele><time>2026-04-27T11:36:07.945Z</time></trkpt><trkpt lat="42.3235343" lon="12.1314298"><ele>763.0000000000001</ele><time>2026-04-27T11:38:02.95Z</time></trkpt><trkpt lat="42.3234828" lon="12.1313764"><ele>761.0</ele><time>2026-04-27T11:38:05.993Z</time></trkpt><trkpt lat="42.3234566" lon="12.1312906"><ele>759.0</ele><time>2026-04-27T11:38:16.949Z</time></trkpt><trkpt lat="42.3234042" lon="12.1312272"><ele>757.0</ele><time>2026-04-27T11:38:24.945Z</time></trkpt><trkpt lat="42.3233358" lon="12.131212"><ele>755.0</ele><time>2026-04-27T11:38:31.969Z</time></trkpt><trkpt lat="42.3232701" lon="12.1311996"><ele>753.0000000000001</ele><time>2026-04-27T11:38:38.935Z</time></trkpt><trkpt lat="42.3231992" lon="12.1312035"><ele>751.0</ele><time>2026-04-27T11:38:46.912Z</time></trkpt><trkpt lat="42.3231358" lon="12.1311726"><ele>751.0</ele><time>2026-04-27T11:38:51.949Z</time></trkpt><trkpt lat="42.3232434" lon="12.1312659"><ele>751.0</ele><time>2026-04-27T11:39:08.944Z</time></trkpt><trkpt lat="42.3232779" lon="12.1311869"><ele>751.0</ele><time>2026-04-27T11:39:22.998Z</time></trkpt><trkpt lat="42.3232694" lon="12.1311001"><ele>751.0</ele><time>2026-04-27T11:39:29.949Z</time></trkpt><trkpt lat="42.323238" lon="12.1310171"><ele>751.0</ele><time>2026-04-27T11:39:39.944Z</time></trkpt><trkpt lat="42.3232093" lon="12.1309365"><ele>751.0</ele><time>2026-04-27T11:39:47.951Z</time></trkpt><trkpt lat="42.3231693" lon="12.1308623"><ele>751.0000000000001</ele><time>2026-04-27T11:39:53.004Z</time></trkpt><trkpt lat="42.3231546" lon="12.1307712"><ele>751.0</ele><time>2026-04-27T11:39:56.949Z</time></trkpt><trkpt lat="42.3231422" lon="12.130672"><ele>751.0</ele><time>2026-04-27T11:40:02.992Z</time></trkpt><trkpt lat="42.3231359" lon="12.1305747"><ele>751.0</ele><time>2026-04-27T11:40:10.958Z</time></trkpt><trkpt lat="42.323152" lon="12.1304856"><ele>751.0</ele><time>2026-04-27T11:40:16.018Z</time></trkpt><trkpt lat="42.3231545" lon="12.1303807"><ele>751.0000000000001</ele><time>2026-04-27T11:40:22.973Z</time></trkpt><trkpt lat="42.3231288" lon="12.1302987"><ele>751.0</ele><time>2026-04-27T11:40:27.918Z</time></trkpt><trkpt lat="42.323064" lon="12.1302727"><ele>749.7142857142858</ele><time>2026-04-27T11:40:42.949Z</time></trkpt><trkpt lat="42.3230244" lon="12.1302016"><ele>748.4285714285714</ele><time>2026-04-27T11:41:43.95Z</time></trkpt><trkpt lat="42.323056" lon="12.1300903"><ele>747.1428571428571</ele><time>2026-04-27T11:41:47.98Z</time></trkpt><trkpt lat="42.3230972" lon="12.1300106"><ele>745.8571428571429</ele><time>2026-04-27T11:41:52.974Z</time></trkpt><trkpt lat="42.3230946" lon="12.1299217"><ele>744.5714285714286</ele><time>2026-04-27T11:41:59.989Z</time></trkpt><trkpt lat="42.3230482" lon="12.1298483"><ele>743.2857142857143</ele><time>2026-04-27T11:42:05.951Z</time></trkpt><trkpt lat="42.3230136" lon="12.1297681"><ele>742.0</ele><time>2026-04-27T11:42:10.947Z</time></trkpt><trkpt lat="42.3229836" lon="12.1296898"><ele>740.1428571428571</ele><time>2026-04-27T11:42:16.869Z</time></trkpt><trkpt lat="42.3229517" lon="12.1296098"><ele>738.2857142857142</ele><time>2026-04-27T11:42:21.985Z</time></trkpt><trkpt lat="42.3229194" lon="12.1295284"><ele>736.4285714285714</ele><time>2026-04-27T11:42:30.944Z</time></trkpt><trkpt lat="42.3228848" lon="12.1294365"><ele>734.5714285714286</ele><time>2026-04-27T11:42:36.966Z</time></trkpt><trkpt lat="42.322837" lon="12.1293704"><ele>732.7142857142857</ele><time>2026-04-27T11:42:41.961Z</time></trkpt><trkpt lat="42.3227865" lon="12.1293049"><ele>730.8571428571429</ele><time>2026-04-27T11:42:47.948Z</time></trkpt><trkpt lat="42.3227793" lon="12.1292188"><ele>729.0</ele><time>2026-04-27T11:42:53.969Z</time></trkpt><trkpt lat="42.3227342" lon="12.1291478"><ele>729.0</ele><time>2026-04-27T11:43:00.99Z</time></trkpt><trkpt lat="42.3226744" lon="12.1290998"><ele>729.0</ele><time>2026-04-27T11:43:06.948Z</time></trkpt><trkpt lat="42.3226187" lon="12.1290392"><ele>729.0</ele><time>2026-04-27T11:43:11.969Z</time></trkpt><trkpt lat="42.3225845" lon="12.1289568"><ele>729.0</ele><time>2026-04-27T11:43:20.954Z</time></trkpt><trkpt lat="42.3225622" lon="12.1288745"><ele>729.0</ele><time>2026-04-27T11:43:27.891Z</time></trkpt><trkpt lat="42.3225341" lon="12.1287959"><ele>729.0</ele><time>2026-04-27T11:43:40.944Z</time></trkpt><trkpt lat="42.3224993" lon="12.1287147"><ele>729.0</ele><time>2026-04-27T11:43:52.943Z</time></trkpt><trkpt lat="42.3224607" lon="12.1286365"><ele>727.2857142857143</ele><time>2026-04-27T11:43:59.995Z</time></trkpt><trkpt lat="42.3224469" lon="12.1285525"><ele>725.5714285714286</ele><time>2026-04-27T11:44:08.944Z</time></trkpt><trkpt lat="42.3224211" lon="12.1284686"><ele>723.8571428571429</ele><time>2026-04-27T11:44:16.961Z</time></trkpt><trkpt lat="42.3223758" lon="12.1283919"><ele>722.1428571428571</ele><time>2026-04-27T11:44:23.976Z</time></trkpt><trkpt lat="42.3223138" lon="12.1283686"><ele>720.4285714285713</ele><time>2026-04-27T11:44:27.948Z</time></trkpt><trkpt lat="42.3222449" lon="12.1283358"><ele>718.7142857142857</ele><time>2026-04-27T11:44:32.949Z</time></trkpt><trkpt lat="42.3222109" lon="12.1282413"><ele>717.0</ele><time>2026-04-27T11:44:39.951Z</time></trkpt><trkpt lat="42.3221485" lon="12.1281997"><ele>714.8571428571429</ele><time>2026-04-27T11:44:47.993Z</time></trkpt><trkpt lat="42.3221046" lon="12.1281344"><ele>712.7142857142857</ele><time>2026-04-27T11:44:53.948Z</time></trkpt><trkpt lat="42.3220496" lon="12.1280827"><ele>710.5714285714287</ele><time>2026-04-27T11:44:59.968Z</time></trkpt><trkpt lat="42.3219853" lon="12.1280856"><ele>708.4285714285714</ele><time>2026-04-27T11:45:07.969Z</time></trkpt><trkpt lat="42.3219223" lon="12.1280889"><ele>706.2857142857143</ele><time>2026-04-27T11:45:15.946Z</time></trkpt><trkpt lat="42.3218289" lon="12.1280685"><ele>704.1428571428572</ele><time>2026-04-27T11:45:52.944Z</time></trkpt><trkpt lat="42.3217729" lon="12.128022"><ele>702.0</ele><time>2026-04-27T11:45:57.942Z</time></trkpt><trkpt lat="42.3217401" lon="12.1279461"><ele>702.0000000000001</ele><time>2026-04-27T11:46:07.944Z</time></trkpt><trkpt lat="42.3217587" lon="12.1278605"><ele>702.0</ele><time>2026-04-27T11:46:17.944Z</time></trkpt><trkpt lat="42.3217893" lon="12.1277824"><ele>702.0</ele><time>2026-04-27T11:46:29.942Z</time></trkpt><trkpt lat="42.3217583" lon="12.1276859"><ele>702.0</ele><time>2026-04-27T11:46:39.957Z</time></trkpt><trkpt lat="42.3217551" lon="12.1275998"><ele>702.0</ele><time>2026-04-27T11:46:47.966Z</time></trkpt><trkpt lat="42.321748" lon="12.1275034"><ele>702.0000000000001</ele><time>2026-04-27T11:46:55.944Z</time></trkpt><trkpt lat="42.3217293" lon="12.1274213"><ele>702.0</ele><time>2026-04-27T11:47:03.914Z</time></trkpt><trkpt lat="42.3217173" lon="12.1273302"><ele>701.2857142857143</ele><time>2026-04-27T11:47:13.944Z</time></trkpt><trkpt lat="42.3217088" lon="12.1272395"><ele>700.5714285714286</ele><time>2026-04-27T11:47:19.95Z</time></trkpt><trkpt lat="42.321672" lon="12.1271635"><ele>699.8571428571429</ele><time>2026-04-27T11:47:25.948Z</time></trkpt><trkpt lat="42.3216437" lon="12.1270774"><ele>699.1428571428571</ele><time>2026-04-27T11:47:32.877Z</time></trkpt><trkpt lat="42.3216153" lon="12.1269953"><ele>698.4285714285714</ele><time>2026-04-27T11:47:39.953Z</time></trkpt><trkpt lat="42.3216069" lon="12.1269043"><ele>697.7142857142858</ele><time>2026-04-27T11:47:49.941Z</time></trkpt><trkpt lat="42.3215676" lon="12.1268348"><ele>697.0</ele><time>2026-04-27T11:47:59.945Z</time></trkpt><trkpt lat="42.3215717" lon="12.1267395"><ele>697.0</ele><time>2026-04-27T11:48:07.987Z</time></trkpt><trkpt lat="42.3215592" lon="12.1266546"><ele>697.0</ele><time>2026-04-27T11:48:15.989Z</time></trkpt><trkpt lat="42.3215473" lon="12.1265678"><ele>697.0</ele><time>2026-04-27T11:48:21.993Z</time></trkpt><trkpt lat="42.3215259" lon="12.1264875"><ele>697.0</ele><time>2026-04-27T11:48:29.969Z</time></trkpt><trkpt lat="42.3215196" lon="12.1263995"><ele>697.0</ele><time>2026-04-27T11:48:39.97Z</time></trkpt><trkpt lat="42.3215056" lon="12.126309"><ele>697.0</ele><time>2026-04-27T11:48:46.992Z</time></trkpt><trkpt lat="42.3214904" lon="12.1262253"><ele>697.0</ele><time>2026-04-27T11:48:55.87Z</time></trkpt><trkpt lat="42.3214823" lon="12.1261408"><ele>695.8571428571429</ele><time>2026-04-27T11:48:59.946Z</time></trkpt><trkpt lat="42.3214494" lon="12.1260538"><ele>694.7142857142857</ele><time>2026-04-27T11:49:04.942Z</time></trkpt><trkpt lat="42.3214326" lon="12.1259659"><ele>693.5714285714286</ele><time>2026-04-27T11:49:11.833Z</time></trkpt><trkpt lat="42.3213703" lon="12.125998"><ele>692.4285714285714</ele><time>2026-04-27T11:49:39.948Z</time></trkpt><trkpt lat="42.3213396" lon="12.1259225"><ele>691.2857142857143</ele><time>2026-04-27T11:49:55.95Z</time></trkpt><trkpt lat="42.3213444" lon="12.1258306"><ele>690.1428571428571</ele><time>2026-04-27T11:50:01.99Z</time></trkpt><trkpt lat="42.3213587" lon="12.1257462"><ele>689.0</ele><time>2026-04-27T11:50:05.993Z</time></trkpt><trkpt lat="42.3213529" lon="12.1256491"><ele>687.1428571428571</ele><time>2026-04-27T11:50:12.953Z</time></trkpt><trkpt lat="42.3213435" lon="12.1255608"><ele>685.2857142857143</ele><time>2026-04-27T11:50:20.946Z</time></trkpt><trkpt lat="42.3213478" lon="12.1254665"><ele>683.4285714285714</ele><time>2026-04-27T11:50:27.949Z</time></trkpt><trkpt lat="42.3213564" lon="12.1253716"><ele>681.5714285714286</ele><time>2026-04-27T11:50:33.946Z</time></trkpt><trkpt lat="42.3213536" lon="12.1252818"><ele>679.7142857142857</ele><time>2026-04-27T11:50:40.95Z</time></trkpt><trkpt lat="42.3213383" lon="12.1251925"><ele>677.8571428571429</ele><time>2026-04-27T11:50:47.943Z</time></trkpt><trkpt lat="42.3213057" lon="12.1251071"><ele>676.0</ele><time>2026-04-27T11:50:55.947Z</time></trkpt><trkpt lat="42.3212511" lon="12.1250645"><ele>676.0</ele><time>2026-04-27T11:51:03.329Z</time></trkpt><trkpt lat="42.3211939" lon="12.1251032"><ele>676.0</ele><time>2026-04-27T11:51:10.942Z</time></trkpt><trkpt lat="42.3211495" lon="12.1250417"><ele>676.0</ele><time>2026-04-27T11:51:19.95Z</time></trkpt><trkpt lat="42.3211538" lon="12.1249425"><ele>676.0</ele><time>2026-04-27T11:51:27.949Z</time></trkpt><trkpt lat="42.3211577" lon="12.1248464"><ele>676.0</ele><time>2026-04-27T11:51:34.965Z</time></trkpt><trkpt lat="42.3211363" lon="12.1247488"><ele>676.0</ele><time>2026-04-27T11:52:04.943Z</time></trkpt><trkpt lat="42.3211283" lon="12.1246597"><ele>676.0</ele><time>2026-04-27T11:52:10.929Z</time></trkpt><trkpt lat="42.3211547" lon="12.1245109"><ele>674.7142857142858</ele><time>2026-04-27T11:52:35.969Z</time></trkpt><trkpt lat="42.3211535" lon="12.1244184"><ele>673.4285714285714</ele><time>2026-04-27T11:52:43.946Z</time></trkpt><trkpt lat="42.3211551" lon="12.1243167"><ele>672.1428571428571</ele><time>2026-04-27T11:52:50.943Z</time></trkpt><trkpt lat="42.3211467" lon="12.1242224"><ele>670.8571428571429</ele><time>2026-04-27T11:52:59.96Z</time></trkpt><trkpt lat="42.3211296" lon="12.1241335"><ele>669.5714285714286</ele><time>2026-04-27T11:53:06.944Z</time></trkpt><trkpt lat="42.3211166" lon="12.124047"><ele>668.2857142857143</ele><time>2026-04-27T11:53:13.948Z</time></trkpt><trkpt lat="42.3211253" lon="12.1239617"><ele>667.0</ele><time>2026-04-27T11:53:21.989Z</time></trkpt><trkpt lat="42.3211024" lon="12.123872"><ele>667.0</ele><time>2026-04-27T11:53:27.944Z</time></trkpt><trkpt lat="42.3210856" lon="12.1237849"><ele>667.0</ele><time>2026-04-27T11:53:32.88Z</time></trkpt><trkpt lat="42.3211551" lon="12.1243167"><ele>667.0000000000001</ele><time>2026-04-27T11:52:50.943Z</time></trkpt><trkpt lat="42.3211467" lon="12.1242224"><ele>667.0</ele><time>2026-04-27T11:52:59.96Z</time></trkpt><trkpt lat="42.3211296" lon="12.1241335"><ele>667.0</ele><time>2026-04-27T11:53:06.944Z</time></trkpt><trkpt lat="42.3211166" lon="12.124047"><ele>667.0</ele><time>2026-04-27T11:53:13.948Z</time></trkpt><trkpt lat="42.3211253" lon="12.1239617"><ele>667.0</ele><time>2026-04-27T11:53:21.989Z</time></trkpt><trkpt lat="42.3211024" lon="12.123872"><ele>667.0000000000001</ele><time>2026-04-27T11:53:27.944Z</time></trkpt><trkpt lat="42.3210856" lon="12.1237849"><ele>667.0</ele><time>2026-04-27T11:53:32.88Z</time></trkpt><trkpt lat="42.3210372" lon="12.12372"><ele>665.5714285714287</ele><time>2026-04-27T11:53:38.949Z</time></trkpt><trkpt lat="42.3210167" lon="12.1236304"><ele>664.1428571428571</ele><time>2026-04-27T11:53:48.982Z</time></trkpt><trkpt lat="42.3210348" lon="12.1235311"><ele>662.7142857142858</ele><time>2026-04-27T11:53:57.948Z</time></trkpt><trkpt lat="42.3210242" lon="12.1234447"><ele>661.2857142857143</ele><time>2026-04-27T11:54:04.947Z</time></trkpt><trkpt lat="42.321002" lon="12.1233638"><ele>659.8571428571429</ele><time>2026-04-27T11:54:10.981Z</time></trkpt><trkpt lat="42.3209867" lon="12.1232696"><ele>658.4285714285714</ele><time>2026-04-27T11:54:21.947Z</time></trkpt><trkpt lat="42.3209428" lon="12.1232027"><ele>657.0</ele><time>2026-04-27T11:54:31.524Z</time></trkpt><trkpt lat="42.3208955" lon="12.1231304"><ele>655.1428571428571</ele><time>2026-04-27T11:54:37.974Z</time></trkpt><trkpt lat="42.3208587" lon="12.1230592"><ele>653.2857142857143</ele><time>2026-04-27T11:54:44.948Z</time></trkpt><trkpt lat="42.3208016" lon="12.1230168"><ele>651.4285714285714</ele><time>2026-04-27T11:54:53.942Z</time></trkpt><trkpt lat="42.3207348" lon="12.1229844"><ele>649.5714285714286</ele><time>2026-04-27T11:55:01.863Z</time></trkpt><trkpt lat="42.3206638" lon="12.1229559"><ele>647.7142857142858</ele><time>2026-04-27T11:55:09.959Z</time></trkpt><trkpt lat="42.3206017" lon="12.1229398"><ele>645.8571428571429</ele><time>2026-04-27T11:55:16.974Z</time></trkpt><trkpt lat="42.3205404" lon="12.1229109"><ele>644.0</ele><time>2026-04-27T11:55:25.947Z</time></trkpt><trkpt lat="42.3205058" lon="12.1228384"><ele>644.0</ele><time>2026-04-27T11:55:37.942Z</time></trkpt><trkpt lat="42.3205303" lon="12.1227549"><ele>644.0</ele><time>2026-04-27T11:55:50.966Z</time></trkpt><trkpt lat="42.3205002" lon="12.1226767"><ele>644.0</ele><time>2026-04-27T11:56:01.95Z</time></trkpt><trkpt lat="42.3205404" lon="12.1226103"><ele>644.0</ele><time>2026-04-27T11:56:23.904Z</time></trkpt><trkpt lat="42.3206094" lon="12.122585"><ele>644.0</ele><time>2026-04-27T11:56:37.948Z</time></trkpt><trkpt lat="42.3206908" lon="12.1225822"><ele>644.0</ele><time>2026-04-27T11:56:47.941Z</time></trkpt><trkpt lat="42.3207541" lon="12.1225941"><ele>644.0</ele><time>2026-04-27T11:56:58.983Z</time></trkpt><trkpt lat="42.3208171" lon="12.1226041"><ele>644.0</ele><time>2026-04-27T11:57:04.943Z</time></trkpt><trkpt lat="42.3208807" lon="12.1226101"><ele>644.0</ele><time>2026-04-27T11:57:09.923Z</time></trkpt><trkpt lat="42.3209545" lon="12.1225893"><ele>644.0</ele><time>2026-04-27T11:57:15.983Z</time></trkpt><trkpt lat="42.3210216" lon="12.1225835"><ele>644.0</ele><time>2026-04-27T11:57:20.948Z</time></trkpt><trkpt lat="42.3210859" lon="12.1225974"><ele>644.0</ele><time>2026-04-27T11:57:27.997Z</time></trkpt><trkpt lat="42.3211443" lon="12.1226361"><ele>644.0</ele><time>2026-04-27T11:57:39.945Z</time></trkpt><trkpt lat="42.3212116" lon="12.1226467"><ele>644.0</ele><time>2026-04-27T11:57:46.948Z</time></trkpt><trkpt lat="42.321272" lon="12.1226709"><ele>644.0</ele><time>2026-04-27T11:57:53.946Z</time></trkpt><trkpt lat="42.3213309" lon="12.1227057"><ele>644.0</ele><time>2026-04-27T11:58:00.947Z</time></trkpt><trkpt lat="42.321391" lon="12.1227322"><ele>644.0</ele><time>2026-04-27T11:58:10.948Z</time></trkpt><trkpt lat="42.3214987" lon="12.1227564"><ele>644.0</ele><time>2026-04-27T11:58:21.98Z</time></trkpt><trkpt lat="42.3215722" lon="12.1227595"><ele>644.0</ele><time>2026-04-27T11:58:28.947Z</time></trkpt><trkpt lat="42.3216363" lon="12.1227499"><ele>644.0</ele><time>2026-04-27T11:58:35.943Z</time></trkpt><trkpt lat="42.3216979" lon="12.1227764"><ele>644.0</ele><time>2026-04-27T11:58:41.956Z</time></trkpt><trkpt lat="42.32176" lon="12.1227966"><ele>644.0</ele><time>2026-04-27T11:58:49.949Z</time></trkpt><trkpt lat="42.3218223" lon="12.1228143"><ele>644.0</ele><time>2026-04-27T11:58:55.986Z</time></trkpt><trkpt lat="42.3218841" lon="12.1227919"><ele>644.0</ele><time>2026-04-27T11:59:04.948Z</time></trkpt><trkpt lat="42.3219461" lon="12.1227523"><ele>644.0</ele><time>2026-04-27T11:59:13.945Z</time></trkpt><trkpt lat="42.3219918" lon="12.1226866"><ele>644.0</ele><time>2026-04-27T11:59:23.944Z</time></trkpt><trkpt lat="42.3220305" lon="12.1226038"><ele>644.0</ele><time>2026-04-27T12:01:52.943Z</time></trkpt><trkpt lat="42.3220383" lon="12.1224267"><ele>644.0</ele><time>2026-04-27T12:04:00.946Z</time></trkpt><trkpt lat="42.3221033" lon="12.1225133"><ele>644.0</ele><time>2026-04-27T12:04:06.943Z</time></trkpt><trkpt lat="42.32221" lon="12.1225983"><ele>644.0</ele><time>2026-04-27T12:04:08.942Z</time></trkpt><trkpt lat="42.3223117" lon="12.1226983"><ele>644.0</ele><time>2026-04-27T12:04:10.945Z</time></trkpt><trkpt lat="42.32242" lon="12.1228017"><ele>644.4000000000001</ele><time>2026-04-27T12:04:12.946Z</time></trkpt><trkpt lat="42.3224917" lon="12.1228983"><ele>644.8</ele><time>2026-04-27T12:04:14.948Z</time></trkpt><trkpt lat="42.3225333" lon="12.1229833"><ele>645.2</ele><time>2026-04-27T12:04:16.943Z</time></trkpt><trkpt lat="42.3226433" lon="12.1230983"><ele>645.5999999999999</ele><time>2026-04-27T12:04:22.947Z</time></trkpt><trkpt lat="42.322735" lon="12.1231017"><ele>646.0</ele><time>2026-04-27T12:04:24.947Z</time></trkpt><trkpt lat="42.3227967" lon="12.1230833"><ele>646.0</ele><time>2026-04-27T12:04:25.943Z</time></trkpt><trkpt lat="42.3229217" lon="12.123075"><ele>646.0</ele><time>2026-04-27T12:04:36.946Z</time></trkpt><trkpt lat="42.3229867" lon="12.1230617"><ele>646.0</ele><time>2026-04-27T12:04:41.946Z</time></trkpt><trkpt lat="42.3231033" lon="12.1230517"><ele>646.0</ele><time>2026-04-27T12:04:46.947Z</time></trkpt><trkpt lat="42.3231733" lon="12.1230067"><ele>646.0</ele><time>2026-04-27T12:04:48.946Z</time></trkpt><trkpt lat="42.3232367" lon="12.1229817"><ele>646.6666666666667</ele><time>2026-04-27T12:04:50.944Z</time></trkpt><trkpt lat="42.3233083" lon="12.1230267"><ele>647.3333333333334</ele><time>2026-04-27T12:04:58.943Z</time></trkpt><trkpt lat="42.3233833" lon="12.1230217"><ele>648.0</ele><time>2026-04-27T12:05:03.942Z</time></trkpt><trkpt lat="42.3234517" lon="12.12298"><ele>648.6666666666666</ele><time>2026-04-27T12:05:05.946Z</time></trkpt><trkpt lat="42.3235367" lon="12.1229217"><ele>649.3333333333333</ele><time>2026-04-27T12:05:07.946Z</time></trkpt><trkpt lat="42.32359" lon="12.1228433"><ele>650.0</ele><time>2026-04-27T12:05:09.946Z</time></trkpt><trkpt lat="42.3236267" lon="12.1227683"><ele>650.0</ele><time>2026-04-27T12:05:11.943Z</time></trkpt><trkpt lat="42.323715" lon="12.1226917"><ele>650.0</ele><time>2026-04-27T12:05:13.944Z</time></trkpt><trkpt lat="42.3238317" lon="12.1226367"><ele>650.0</ele><time>2026-04-27T12:05:15.946Z</time></trkpt><trkpt lat="42.32392" lon="12.1225883"><ele>650.0</ele><time>2026-04-27T12:05:17.947Z</time></trkpt><trkpt lat="42.3239983" lon="12.1225417"><ele>650.0</ele><time>2026-04-27T12:05:19.947Z</time></trkpt><trkpt lat="42.3240917" lon="12.1224867"><ele>650.5</ele><time>2026-04-27T12:05:21.943Z</time></trkpt><trkpt lat="42.3241933" lon="12.1224783"><ele>651.0</ele><time>2026-04-27T12:05:23.944Z</time></trkpt><trkpt lat="42.3243067" lon="12.1224667"><ele>651.5</ele><time>2026-04-27T12:05:25.947Z</time></trkpt><trkpt lat="42.324425" lon="12.1224767"><ele>652.0</ele><time>2026-04-27T12:05:27.946Z</time></trkpt><trkpt lat="42.3245467" lon="12.12249"><ele>652.0</ele><time>2026-04-27T12:05:30.945Z</time></trkpt></trkseg></trk></gpx>